Ana Sayfa
METAR-TAF:

METAR-TAF

Havaalanları :

Stanly County Airport

Albemarle, Kuzey Carolina, Amerika Birleşik Devletleri

Enlem: 35-25-00N, Boylam: 080-09-03W, yükseklik: 186 m

Güncel hava durumu gözlemi

Rapor saat 23:40 UTC de 28 dakika önce yapıldı.
Sakin rüzgar
Sıcaklık 30°C
Nem 52%
Basınç 1018 hPa
Görüş mesafesi: 16.1 km
Açık gökyüzü

METAR: KVUJ 262340Z AUTO 00000KT 10SM CLR 30/19 A3005 RMK AO2 T02960194

Saat: 20:08 (00:08 UTC)


TAF: eksik

4.000'den fazla havaalanı için hava durumu gözlemleri ve tahminleri (METAR ve TAF raporları).

Kullanılabilir istasyonlar harita üzerinde sarı ve kırmızı noktalarla gösterilir.

İstasyonun adını görmek için fareyi noktanın üzerinde gezdirin.

Sonrasında hava gözlem ve tahminlerini görmek için tıklayın.

Haritayı değiştirmek için: yaklaştırmak için siyah artı işaretli yeşil düğmeye ve uzaklaştırmak için de eksi işaretli düğmeye hızla tıklayın; bitişik haritalar için yeşil okları kullanın.


METAR-TAF: